sensor_id;sensor_type;location;lat;lon;timestamp;pressure;altitude;pressure_sealevel;temperature;humidity
63339;BME280;47485;51.378;-1.342;2023-04-08T00:02:09;100908.60;;;8.83;24.17
63339;BME280;47485;51.378;-1.342;2023-04-08T00:04:36;100909.64;;;9.36;23.51
63339;BME280;47485;51.378;-1.342;2023-04-08T00:07:03;100908.51;;;9.48;23.34
63339;BME280;47485;51.378;-1.342;2023-04-08T00:09:29;100908.96;;;9.40;23.72
63339;BME280;47485;51.378;-1.342;2023-04-08T00:11:56;100907.23;;;9.75;23.43
63339;BME280;47485;51.378;-1.342;2023-04-08T00:14:23;100915.97;;;9.77;23.74
63339;BME280;47485;51.378;-1.342;2023-04-08T00:16:49;100917.89;;;8.83;24.06
63339;BME280;47485;51.378;-1.342;2023-04-08T00:19:17;100917.62;;;9.25;24.04
63339;BME280;47485;51.378;-1.342;2023-04-08T00:21:43;100918.92;;;9.03;24.32
63339;BME280;47485;51.378;-1.342;2023-04-08T00:24:12;100916.79;;;8.17;24.31
63339;BME280;47485;51.378;-1.342;2023-04-08T00:26:40;100916.27;;;9.26;24.17
63339;BME280;47485;51.378;-1.342;2023-04-08T00:29:17;100914.78;;;5.49;25.95
63339;BME280;47485;51.378;-1.342;2023-04-08T00:31:45;100909.58;;;9.01;23.68
63339;BME280;47485;51.378;-1.342;2023-04-08T00:34:12;100908.64;;;8.94;23.34
63339;BME280;47485;51.378;-1.342;2023-04-08T00:36:40;100907.20;;;8.55;23.58
63339;BME280;47485;51.378;-1.342;2023-04-08T00:39:07;100908.25;;;8.76;23.55
63339;BME280;47485;51.378;-1.342;2023-04-08T00:41:33;100909.84;;;8.60;23.08
63339;BME280;47485;51.378;-1.342;2023-04-08T00:44:05;100911.00;;;9.16;23.31
63339;BME280;47485;51.378;-1.342;2023-04-08T00:46:35;100910.02;;;8.74;23.32
63339;BME280;47485;51.378;-1.342;2023-04-08T00:49:04;100907.15;;;8.69;23.29
63339;BME280;47485;51.378;-1.342;2023-04-08T00:51:32;100908.26;;;10.23;23.21
63339;BME280;47485;51.378;-1.342;2023-04-08T00:54:00;100910.38;;;9.06;23.62
63339;BME280;47485;51.378;-1.342;2023-04-08T00:56:28;100910.84;;;9.30;23.50
63339;BME280;47485;51.378;-1.342;2023-04-08T00:58:55;100910.11;;;9.28;23.29
63339;BME280;47485;51.378;-1.342;2023-04-08T01:01:24;100913.44;;;9.80;23.80
63339;BME280;47485;51.378;-1.342;2023-04-08T01:04:01;100912.82;;;8.49;24.11
63339;BME280;47485;51.378;-1.342;2023-04-08T01:06:39;100913.23;;;7.54;24.49
63339;BME280;47485;51.378;-1.342;2023-04-08T01:09:07;100918.53;;;8.78;24.42
63339;BME280;47485;51.378;-1.342;2023-04-08T01:11:34;100918.24;;;6.80;25.36
63339;BME280;47485;51.378;-1.342;2023-04-08T01:14:05;100917.09;;;7.02;25.31
63339;BME280;47485;51.378;-1.342;2023-04-08T01:16:40;100914.36;;;5.79;25.44
63339;BME280;47485;51.378;-1.342;2023-04-08T01:19:09;100919.64;;;6.72;24.46
63339;BME280;47485;51.378;-1.342;2023-04-08T01:21:43;100922.26;;;5.16;24.55
63339;BME280;47485;51.378;-1.342;2023-04-08T01:24:18;100918.41;;;8.76;23.22
63339;BME280;47485;51.378;-1.342;2023-04-08T01:26:49;100920.65;;;8.78;23.40
63339;BME280;47485;51.378;-1.342;2023-04-08T01:29:16;100923.78;;;9.89;23.87
63339;BME280;47485;51.378;-1.342;2023-04-08T01:31:44;100928.62;;;9.22;24.35
63339;BME280;47485;51.378;-1.342;2023-04-08T01:34:24;100928.07;;;8.42;24.72
63339;BME280;47485;51.378;-1.342;2023-04-08T01:36:54;100928.92;;;7.33;24.80
63339;BME280;47485;51.378;-1.342;2023-04-08T01:39:22;100934.51;;;8.87;25.13
63339;BME280;47485;51.378;-1.342;2023-04-08T01:41:50;100936.75;;;6.70;25.26
63339;BME280;47485;51.378;-1.342;2023-04-08T01:44:19;100936.73;;;7.46;25.37
63339;BME280;47485;51.378;-1.342;2023-04-08T01:46:48;100936.40;;;7.75;25.75
63339;BME280;47485;51.378;-1.342;2023-04-08T01:49:17;100936.32;;;7.31;25.69
63339;BME280;47485;51.378;-1.342;2023-04-08T01:51:45;100936.45;;;5.46;26.57
63339;BME280;47485;51.378;-1.342;2023-04-08T01:54:16;100938.33;;;3.63;27.25
63339;BME280;47485;51.378;-1.342;2023-04-08T01:56:43;100941.14;;;2.60;27.66
63339;BME280;47485;51.378;-1.342;2023-04-08T01:59:14;100939.83;;;2.94;27.26
63339;BME280;47485;51.378;-1.342;2023-04-08T02:01:44;100939.94;;;7.29;24.60
63339;BME280;47485;51.378;-1.342;2023-04-08T02:04:12;100942.03;;;7.21;23.24
63339;BME280;47485;51.378;-1.342;2023-04-08T02:06:40;100946.49;;;5.28;26.16
63339;BME280;47485;51.378;-1.342;2023-04-08T02:09:08;100947.33;;;4.24;26.31
63339;BME280;47485;51.378;-1.342;2023-04-08T02:11:35;100948.69;;;4.60;25.78
63339;BME280;47485;51.378;-1.342;2023-04-08T02:14:09;100949.53;;;7.44;23.64
63339;BME280;47485;51.378;-1.342;2023-04-08T02:16:49;100948.34;;;3.91;25.58
63339;BME280;47485;51.378;-1.342;2023-04-08T02:19:24;100944.43;;;7.51;24.03
63339;BME280;47485;51.378;-1.342;2023-04-08T02:22:01;100946.31;;;6.04;24.90
63339;BME280;47485;51.378;-1.342;2023-04-08T02:24:31;100946.12;;;6.53;24.36
63339;BME280;47485;51.378;-1.342;2023-04-08T02:26:59;100946.76;;;4.05;25.13
63339;BME280;47485;51.378;-1.342;2023-04-08T02:29:30;100948.61;;;8.84;22.96
63339;BME280;47485;51.378;-1.342;2023-04-08T02:32:00;100949.44;;;7.86;23.29
63339;BME280;47485;51.378;-1.342;2023-04-08T02:34:29;100945.49;;;7.32;24.41
63339;BME280;47485;51.378;-1.342;2023-04-08T02:36:56;100948.81;;;7.14;24.80
63339;BME280;47485;51.378;-1.342;2023-04-08T02:39:30;100951.11;;;6.12;24.94
63339;BME280;47485;51.378;-1.342;2023-04-08T02:41:57;100951.82;;;7.08;24.06
63339;BME280;47485;51.378;-1.342;2023-04-08T02:44:24;100951.98;;;5.28;24.70
63339;BME280;47485;51.378;-1.342;2023-04-08T02:46:50;100960.07;;;3.33;26.43
63339;BME280;47485;51.378;-1.342;2023-04-08T02:49:26;100959.18;;;3.30;26.37
63339;BME280;47485;51.378;-1.342;2023-04-08T02:51:53;100955.99;;;3.19;26.40
63339;BME280;47485;51.378;-1.342;2023-04-08T02:54:23;100959.01;;;4.29;25.49
63339;BME280;47485;51.378;-1.342;2023-04-08T02:56:49;100958.69;;;6.41;24.55
63339;BME280;47485;51.378;-1.342;2023-04-08T02:59:16;100959.65;;;5.77;24.33
63339;BME280;47485;51.378;-1.342;2023-04-08T03:01:43;100961.58;;;8.13;23.00
63339;BME280;47485;51.378;-1.342;2023-04-08T03:04:15;100965.16;;;7.33;23.15
63339;BME280;47485;51.378;-1.342;2023-04-08T03:06:42;100967.32;;;6.70;23.74
63339;BME280;47485;51.378;-1.342;2023-04-08T03:09:08;100968.04;;;8.17;23.78
63339;BME280;47485;51.378;-1.342;2023-04-08T03:11:35;100968.72;;;6.53;24.65
63339;BME280;47485;51.378;-1.342;2023-04-08T03:14:03;100967.62;;;7.37;23.55
63339;BME280;47485;51.378;-1.342;2023-04-08T03:16:31;100973.61;;;7.40;23.45
63339;BME280;47485;51.378;-1.342;2023-04-08T03:18:58;100981.65;;;7.71;23.57
63339;BME280;47485;51.378;-1.342;2023-04-08T03:21:24;100983.43;;;8.38;23.42
63339;BME280;47485;51.378;-1.342;2023-04-08T03:23:52;100980.29;;;8.58;23.58
63339;BME280;47485;51.378;-1.342;2023-04-08T03:26:18;100976.54;;;7.32;24.11
63339;BME280;47485;51.378;-1.342;2023-04-08T03:28:45;100982.28;;;3.25;26.76
63339;BME280;47485;51.378;-1.342;2023-04-08T03:31:12;100982.30;;;5.15;25.93
63339;BME280;47485;51.378;-1.342;2023-04-08T03:33:40;100982.43;;;5.08;25.98
63339;BME280;47485;51.378;-1.342;2023-04-08T03:36:08;100983.52;;;6.21;24.99
63339;BME280;47485;51.378;-1.342;2023-04-08T03:38:40;100980.76;;;5.69;25.66
63339;BME280;47485;51.378;-1.342;2023-04-08T03:41:07;100985.98;;;3.82;26.91
63339;BME280;47485;51.378;-1.342;2023-04-08T03:43:34;100984.66;;;4.25;25.61
63339;BME280;47485;51.378;-1.342;2023-04-08T03:46:01;100988.87;;;7.47;24.19
63339;BME280;47485;51.378;-1.342;2023-04-08T03:48:28;100992.25;;;3.10;26.84
63339;BME280;47485;51.378;-1.342;2023-04-08T03:51:00;100991.30;;;5.23;25.38
63339;BME280;47485;51.378;-1.342;2023-04-08T03:53:32;100996.00;;;7.08;24.19
63339;BME280;47485;51.378;-1.342;2023-04-08T03:55:59;100997.10;;;4.34;25.87
63339;BME280;47485;51.378;-1.342;2023-04-08T03:58:26;100993.13;;;3.96;25.37
63339;BME280;47485;51.378;-1.342;2023-04-08T04:00:53;100996.11;;;7.22;23.67
63339;BME280;47485;51.378;-1.342;2023-04-08T04:03:20;100998.98;;;7.82;23.55
63339;BME280;47485;51.378;-1.342;2023-04-08T04:05:48;101004.50;;;8.57;24.03
63339;BME280;47485;51.378;-1.342;2023-04-08T04:08:15;101006.32;;;6.70;24.98
63339;BME280;47485;51.378;-1.342;2023-04-08T04:10:42;101012.57;;;3.76;26.87
63339;BME280;47485;51.378;-1.342;2023-04-08T04:13:09;101017.73;;;1.40;28.58
63339;BME280;47485;51.378;-1.342;2023-04-08T04:15:38;101012.47;;;5.07;26.05
63339;BME280;47485;51.378;-1.342;2023-04-08T04:18:06;101012.76;;;6.62;24.12
63339;BME280;47485;51.378;-1.342;2023-04-08T04:20:33;101014.30;;;6.43;23.77
63339;BME280;47485;51.378;-1.342;2023-04-08T04:23:00;101015.29;;;7.84;24.15
63339;BME280;47485;51.378;-1.342;2023-04-08T04:25:27;101014.39;;;7.28;24.58
63339;BME280;47485;51.378;-1.342;2023-04-08T04:27:54;101013.21;;;7.25;24.57
63339;BME280;47485;51.378;-1.342;2023-04-08T04:30:22;101017.77;;;6.42;24.80
63339;BME280;47485;51.378;-1.342;2023-04-08T04:32:49;101022.73;;;5.11;25.67
63339;BME280;47485;51.378;-1.342;2023-04-08T04:35:18;101021.11;;;4.55;26.89
63339;BME280;47485;51.378;-1.342;2023-04-08T04:37:45;101023.78;;;4.01;26.36
63339;BME280;47485;51.378;-1.342;2023-04-08T04:40:14;101021.16;;;5.22;25.06
63339;BME280;47485;51.378;-1.342;2023-04-08T04:42:41;101031.52;;;3.48;26.18
63339;BME280;47485;51.378;-1.342;2023-04-08T04:45:09;101033.32;;;3.49;26.10
63339;BME280;47485;51.378;-1.342;2023-04-08T04:47:36;101036.35;;;4.60;25.77
63339;BME280;47485;51.378;-1.342;2023-04-08T04:50:03;101033.76;;;5.10;25.13
63339;BME280;47485;51.378;-1.342;2023-04-08T04:52:30;101039.13;;;4.00;26.02
63339;BME280;47485;51.378;-1.342;2023-04-08T04:54:58;101038.09;;;5.86;24.54
63339;BME280;47485;51.378;-1.342;2023-04-08T04:57:30;101041.84;;;5.47;24.38
63339;BME280;47485;51.378;-1.342;2023-04-08T04:59:57;101040.34;;;7.16;23.69
63339;BME280;47485;51.378;-1.342;2023-04-08T05:02:24;101039.59;;;6.96;23.82
63339;BME280;47485;51.378;-1.342;2023-04-08T05:04:50;101046.62;;;5.63;24.46
63339;BME280;47485;51.378;-1.342;2023-04-08T05:07:17;101050.80;;;7.00;24.10
63339;BME280;47485;51.378;-1.342;2023-04-08T05:09:44;101053.16;;;5.74;24.84
63339;BME280;47485;51.378;-1.342;2023-04-08T05:12:11;101048.86;;;6.76;24.67
63339;BME280;47485;51.378;-1.342;2023-04-08T05:14:40;101056.33;;;2.11;26.90
63339;BME280;47485;51.378;-1.342;2023-04-08T05:17:07;101052.02;;;3.02;26.47
63339;BME280;47485;51.378;-1.342;2023-04-08T05:19:34;101048.64;;;3.96;25.30
63339;BME280;47485;51.378;-1.342;2023-04-08T05:22:01;101052.56;;;5.75;25.39
63339;BME280;47485;51.378;-1.342;2023-04-08T05:24:27;101052.36;;;5.78;24.43
63339;BME280;47485;51.378;-1.342;2023-04-08T05:27:00;101052.08;;;5.79;24.14
63339;BME280;47485;51.378;-1.342;2023-04-08T05:29:26;101052.17;;;7.25;23.29
63339;BME280;47485;51.378;-1.342;2023-04-08T05:32:03;101055.42;;;5.47;25.51
63339;BME280;47485;51.378;-1.342;2023-04-08T05:34:31;101056.11;;;6.99;23.86
63339;BME280;47485;51.378;-1.342;2023-04-08T05:36:57;101059.80;;;5.84;25.02
63339;BME280;47485;51.378;-1.342;2023-04-08T05:39:25;101064.05;;;5.13;24.92
63339;BME280;47485;51.378;-1.342;2023-04-08T05:41:54;101068.18;;;2.38;26.85
63339;BME280;47485;51.378;-1.342;2023-04-08T05:44:23;101064.95;;;5.30;25.37
63339;BME280;47485;51.378;-1.342;2023-04-08T05:46:50;101067.02;;;4.74;25.39
63339;BME280;47485;51.378;-1.342;2023-04-08T05:49:16;101066.14;;;4.22;25.64
63339;BME280;47485;51.378;-1.342;2023-04-08T05:51:43;101070.75;;;2.71;26.86
63339;BME280;47485;51.378;-1.342;2023-04-08T05:54:10;101069.78;;;4.25;26.20
63339;BME280;47485;51.378;-1.342;2023-04-08T05:56:38;101070.78;;;5.07;25.03
63339;BME280;47485;51.378;-1.342;2023-04-08T05:59:06;101077.72;;;2.69;27.09
63339;BME280;47485;51.378;-1.342;2023-04-08T06:01:33;101078.94;;;7.43;23.97
63339;BME280;47485;51.378;-1.342;2023-04-08T06:04:00;101082.58;;;6.17;24.38
63339;BME280;47485;51.378;-1.342;2023-04-08T06:06:28;101088.42;;;7.75;25.16
63339;BME280;47485;51.378;-1.342;2023-04-08T06:08:54;101089.75;;;6.36;26.25
63339;BME280;47485;51.378;-1.342;2023-04-08T06:11:21;101092.95;;;5.98;26.85
63339;BME280;47485;51.378;-1.342;2023-04-08T06:13:48;101094.42;;;5.30;27.48
63339;BME280;47485;51.378;-1.342;2023-04-08T06:16:15;101097.60;;;4.31;27.75
63339;BME280;47485;51.378;-1.342;2023-04-08T06:18:43;101098.05;;;3.40;27.82
63339;BME280;47485;51.378;-1.342;2023-04-08T06:21:11;101097.12;;;5.77;26.65
63339;BME280;47485;51.378;-1.342;2023-04-08T06:23:39;101098.62;;;6.74;25.86
63339;BME280;47485;51.378;-1.342;2023-04-08T06:26:06;101102.18;;;7.21;26.44
63339;BME280;47485;51.378;-1.342;2023-04-08T06:28:34;101108.88;;;7.38;26.61
63339;BME280;47485;51.378;-1.342;2023-04-08T06:31:00;101112.98;;;3.72;28.53
63339;BME280;47485;51.378;-1.342;2023-04-08T06:33:28;101119.22;;;5.61;26.76
63339;BME280;47485;51.378;-1.342;2023-04-08T06:36:01;101119.08;;;7.20;26.54
63339;BME280;47485;51.378;-1.342;2023-04-08T06:38:28;101124.67;;;4.88;26.73
63339;BME280;47485;51.378;-1.342;2023-04-08T06:41:02;101119.96;;;5.90;26.04
63339;BME280;47485;51.378;-1.342;2023-04-08T06:43:29;101127.99;;;5.87;26.92
63339;BME280;47485;51.378;-1.342;2023-04-08T06:45:55;101130.20;;;5.46;27.20
63339;BME280;47485;51.378;-1.342;2023-04-08T06:48:22;101131.16;;;6.86;27.27
63339;BME280;47485;51.378;-1.342;2023-04-08T06:50:49;101138.44;;;2.30;29.71
63339;BME280;47485;51.378;-1.342;2023-04-08T06:53:16;101133.92;;;1.76;29.88
63339;BME280;47485;51.378;-1.342;2023-04-08T06:55:43;101135.78;;;2.54;29.58
63339;BME280;47485;51.378;-1.342;2023-04-08T06:58:10;101133.90;;;2.29;28.82
63339;BME280;47485;51.378;-1.342;2023-04-08T07:00:37;101125.01;;;6.11;26.11
63339;BME280;47485;51.378;-1.342;2023-04-08T07:03:04;101128.36;;;5.70;26.93
63339;BME280;47485;51.378;-1.342;2023-04-08T07:05:31;101130.01;;;8.37;24.61
63339;BME280;47485;51.378;-1.342;2023-04-08T07:07:59;101135.92;;;3.73;28.57
63339;BME280;47485;51.378;-1.342;2023-04-08T07:10:26;101132.29;;;5.71;27.97
63339;BME280;47485;51.378;-1.342;2023-04-08T07:12:52;101130.37;;;4.70;27.54
63339;BME280;47485;51.378;-1.342;2023-04-08T07:15:20;101133.19;;;2.09;29.21
63339;BME280;47485;51.378;-1.342;2023-04-08T07:17:47;101134.12;;;2.29;30.01
63339;BME280;47485;51.378;-1.342;2023-04-08T07:20:14;101125.89;;;4.54;28.29
63339;BME280;47485;51.378;-1.342;2023-04-08T07:22:41;101128.11;;;5.69;27.32
63339;BME280;47485;51.378;-1.342;2023-04-08T07:25:08;101126.31;;;6.67;26.06
63339;BME280;47485;51.378;-1.342;2023-04-08T07:27:35;101130.30;;;6.27;25.79
63339;BME280;47485;51.378;-1.342;2023-04-08T07:30:02;101136.92;;;5.84;26.28
63339;BME280;47485;51.378;-1.342;2023-04-08T07:32:29;101144.18;;;3.37;28.31
63339;BME280;47485;51.378;-1.342;2023-04-08T07:34:57;101145.59;;;6.54;26.97
63339;BME280;47485;51.378;-1.342;2023-04-08T07:37:35;101145.99;;;5.44;26.59
63339;BME280;47485;51.378;-1.342;2023-04-08T07:40:02;101149.00;;;6.15;25.93
63339;BME280;47485;51.378;-1.342;2023-04-08T07:42:28;101150.56;;;7.22;25.62
63339;BME280;47485;51.378;-1.342;2023-04-08T07:45:00;101153.20;;;7.90;25.33
63339;BME280;47485;51.378;-1.342;2023-04-08T07:47:27;101157.67;;;8.34;25.29
63339;BME280;47485;51.378;-1.342;2023-04-08T07:49:59;101159.86;;;7.89;25.38
63339;BME280;47485;51.378;-1.342;2023-04-08T07:52:26;101162.86;;;8.54;25.42
63339;BME280;47485;51.378;-1.342;2023-04-08T07:54:55;101162.39;;;7.56;25.91
63339;BME280;47485;51.378;-1.342;2023-04-08T07:57:22;101162.07;;;7.72;25.42
63339;BME280;47485;51.378;-1.342;2023-04-08T07:59:49;101160.85;;;8.61;25.62
63339;BME280;47485;51.378;-1.342;2023-04-08T08:02:16;101166.19;;;8.63;25.88
63339;BME280;47485;51.378;-1.342;2023-04-08T08:04:48;101161.74;;;12.27;24.26
63339;BME280;47485;51.378;-1.342;2023-04-08T08:07:15;101167.38;;;8.86;26.30
63339;BME280;47485;51.378;-1.342;2023-04-08T08:09:42;101169.47;;;5.99;27.67
63339;BME280;47485;51.378;-1.342;2023-04-08T08:12:08;101169.01;;;8.77;25.71
63339;BME280;47485;51.378;-1.342;2023-04-08T08:14:42;101167.97;;;11.39;24.48
63339;BME280;47485;51.378;-1.342;2023-04-08T08:17:08;101174.81;;;7.33;26.54
63339;BME280;47485;51.378;-1.342;2023-04-08T08:19:35;101175.87;;;8.92;25.83
63339;BME280;47485;51.378;-1.342;2023-04-08T08:22:05;101179.66;;;7.83;26.89
63339;BME280;47485;51.378;-1.342;2023-04-08T08:24:31;101174.97;;;7.97;26.57
63339;BME280;47485;51.378;-1.342;2023-04-08T08:26:58;101177.42;;;7.21;27.16
63339;BME280;47485;51.378;-1.342;2023-04-08T08:29:25;101181.82;;;7.42;27.44
63339;BME280;47485;51.378;-1.342;2023-04-08T08:31:52;101174.23;;;11.21;24.70
63339;BME280;47485;51.378;-1.342;2023-04-08T08:34:19;101182.65;;;7.89;27.04
63339;BME280;47485;51.378;-1.342;2023-04-08T08:36:45;101175.89;;;10.07;25.72
63339;BME280;47485;51.378;-1.342;2023-04-08T08:39:12;101180.87;;;11.79;25.74
63339;BME280;47485;51.378;-1.342;2023-04-08T08:41:40;101183.53;;;10.79;26.66
63339;BME280;47485;51.378;-1.342;2023-04-08T08:44:09;101185.84;;;8.40;27.92
63339;BME280;47485;51.378;-1.342;2023-04-08T08:46:35;101187.33;;;7.42;28.30
63339;BME280;47485;51.378;-1.342;2023-04-08T08:49:03;101179.77;;;9.98;25.08
63339;BME280;47485;51.378;-1.342;2023-04-08T08:51:31;101185.62;;;8.11;27.55
63339;BME280;47485;51.378;-1.342;2023-04-08T08:54:01;101181.15;;;10.60;25.57
63339;BME280;47485;51.378;-1.342;2023-04-08T08:56:28;101181.57;;;11.93;24.27
63339;BME280;47485;51.378;-1.342;2023-04-08T08:58:55;101179.78;;;11.61;23.99
63339;BME280;47485;51.378;-1.342;2023-04-08T09:01:31;101185.15;;;10.21;26.74
63339;BME280;47485;51.378;-1.342;2023-04-08T09:04:15;101184.74;;;11.41;26.66
63339;BME280;47485;51.378;-1.342;2023-04-08T09:06:42;101181.77;;;10.46;27.01
63339;BME280;47485;51.378;-1.342;2023-04-08T09:09:10;101182.26;;;10.26;26.85
63339;BME280;47485;51.378;-1.342;2023-04-08T09:11:38;101180.29;;;9.61;27.74
63339;BME280;47485;51.378;-1.342;2023-04-08T09:14:16;101181.43;;;8.67;27.31
63339;BME280;47485;51.378;-1.342;2023-04-08T09:16:44;101185.99;;;7.88;28.28
63339;BME280;47485;51.378;-1.342;2023-04-08T09:19:11;101182.90;;;10.83;26.73
63339;BME280;47485;51.378;-1.342;2023-04-08T09:21:39;101184.75;;;8.59;27.71
63339;BME280;47485;51.378;-1.342;2023-04-08T09:24:07;101187.66;;;11.00;26.00
63339;BME280;47485;51.378;-1.342;2023-04-08T09:26:34;101186.50;;;11.33;24.77
63339;BME280;47485;51.378;-1.342;2023-04-08T09:29:03;101189.06;;;9.86;25.64
63339;BME280;47485;51.378;-1.342;2023-04-08T09:31:32;101188.27;;;10.58;24.70
63339;BME280;47485;51.378;-1.342;2023-04-08T09:34:08;101186.82;;;12.00;23.44
63339;BME280;47485;51.378;-1.342;2023-04-08T09:36:35;101184.79;;;9.81;24.18
63339;BME280;47485;51.378;-1.342;2023-04-08T09:39:02;101190.12;;;7.99;26.60
63339;BME280;47485;51.378;-1.342;2023-04-08T09:41:33;101190.35;;;8.43;26.65
63339;BME280;47485;51.378;-1.342;2023-04-08T09:44:02;101184.44;;;8.97;25.06
63339;BME280;47485;51.378;-1.342;2023-04-08T09:46:35;101186.39;;;10.80;24.59
63339;BME280;47485;51.378;-1.342;2023-04-08T09:49:06;101184.95;;;10.22;24.76
63339;BME280;47485;51.378;-1.342;2023-04-08T09:51:42;101188.05;;;10.12;23.69
63339;BME280;47485;51.378;-1.342;2023-04-08T09:54:13;101185.29;;;9.49;23.29
63339;BME280;47485;51.378;-1.342;2023-04-08T09:56:43;101186.86;;;11.12;22.78
63339;BME280;47485;51.378;-1.342;2023-04-08T09:59:14;101189.84;;;11.53;22.40
63339;BME280;47485;51.378;-1.342;2023-04-08T10:01:49;101185.11;;;12.11;21.72
63339;BME280;47485;51.378;-1.342;2023-04-08T10:04:19;101188.52;;;10.38;22.85
63339;BME280;47485;51.378;-1.342;2023-04-08T10:06:51;101191.55;;;10.16;25.40
63339;BME280;47485;51.378;-1.342;2023-04-08T10:09:20;101194.22;;;8.74;22.74
63339;BME280;47485;51.378;-1.342;2023-04-08T10:11:47;101188.51;;;10.04;22.35
63339;BME280;47485;51.378;-1.342;2023-04-08T10:14:15;101189.93;;;4.71;24.52
63339;BME280;47485;51.378;-1.342;2023-04-08T10:16:41;101188.99;;;7.44;25.28
63339;BME280;47485;51.378;-1.342;2023-04-08T10:19:36;101187.33;;;5.84;24.64
63339;BME280;47485;51.378;-1.342;2023-04-08T10:22:03;101184.95;;;6.40;24.37
63339;BME280;47485;51.378;-1.342;2023-04-08T10:24:29;101177.55;;;9.20;20.84
63339;BME280;47485;51.378;-1.342;2023-04-08T10:26:56;101176.37;;;7.66;22.33
63339;BME280;47485;51.378;-1.342;2023-04-08T10:29:34;101179.41;;;5.25;25.00
63339;BME280;47485;51.378;-1.342;2023-04-08T10:32:01;101179.06;;;5.66;24.37
63339;BME280;47485;51.378;-1.342;2023-04-08T10:34:28;101179.58;;;8.68;21.37
63339;BME280;47485;51.378;-1.342;2023-04-08T10:36:56;101176.55;;;12.75;20.56
63339;BME280;47485;51.378;-1.342;2023-04-08T10:39:24;101188.09;;;5.09;25.57
63339;BME280;47485;51.378;-1.342;2023-04-08T10:41:51;101191.96;;;3.93;27.02
63339;BME280;47485;51.378;-1.342;2023-04-08T10:44:19;101187.44;;;8.71;22.43
63339;BME280;47485;51.378;-1.342;2023-04-08T10:46:46;101188.93;;;8.84;21.55
63339;BME280;47485;51.378;-1.342;2023-04-08T10:49:15;101188.27;;;10.92;19.86
63339;BME280;47485;51.378;-1.342;2023-04-08T10:51:43;101183.97;;;8.78;20.82
63339;BME280;47485;51.378;-1.342;2023-04-08T10:54:11;101179.13;;;7.98;22.85
63339;BME280;47485;51.378;-1.342;2023-04-08T10:56:43;101187.85;;;6.50;24.32
63339;BME280;47485;51.378;-1.342;2023-04-08T10:59:11;101180.18;;;7.64;24.35
63339;BME280;47485;51.378;-1.342;2023-04-08T11:01:40;101181.85;;;5.75;26.93
63339;BME280;47485;51.378;-1.342;2023-04-08T11:04:11;101178.10;;;5.20;27.19
63339;BME280;47485;51.378;-1.342;2023-04-08T11:06:38;101170.58;;;7.51;23.88
63339;BME280;47485;51.378;-1.342;2023-04-08T11:09:07;101168.95;;;4.51;25.84
63339;BME280;47485;51.378;-1.342;2023-04-08T11:11:34;101162.07;;;8.51;24.15
63339;BME280;47485;51.378;-1.342;2023-04-08T11:14:01;101165.18;;;8.17;23.73
63339;BME280;47485;51.378;-1.342;2023-04-08T11:16:29;101159.54;;;9.59;22.23
63339;BME280;47485;51.378;-1.342;2023-04-08T11:18:57;101160.27;;;7.67;23.00
63339;BME280;47485;51.378;-1.342;2023-04-08T11:21:23;101163.43;;;6.68;24.31
63339;BME280;47485;51.378;-1.342;2023-04-08T11:23:50;101152.30;;;8.43;21.96
63339;BME280;47485;51.378;-1.342;2023-04-08T11:26:24;101153.88;;;10.36;21.63
63339;BME280;47485;51.378;-1.342;2023-04-08T11:28:52;101149.34;;;7.69;22.33
63339;BME280;47485;51.378;-1.342;2023-04-08T11:31:20;101146.87;;;11.84;20.72
63339;BME280;47485;51.378;-1.342;2023-04-08T11:33:51;101146.75;;;11.43;20.46
63339;BME280;47485;51.378;-1.342;2023-04-08T11:36:18;101145.15;;;7.70;22.29
63339;BME280;47485;51.378;-1.342;2023-04-08T11:38:53;101148.59;;;8.20;22.02
63339;BME280;47485;51.378;-1.342;2023-04-08T11:41:20;101150.65;;;10.08;21.65
63339;BME280;47485;51.378;-1.342;2023-04-08T11:43:52;101153.40;;;6.75;24.40
63339;BME280;47485;51.378;-1.342;2023-04-08T11:46:18;101150.95;;;8.17;22.96
63339;BME280;47485;51.378;-1.342;2023-04-08T11:49:05;101157.42;;;9.96;21.91
63339;BME280;47485;51.378;-1.342;2023-04-08T11:51:32;101150.32;;;10.87;20.84
63339;BME280;47485;51.378;-1.342;2023-04-08T11:53:59;101154.25;;;8.44;22.52
63339;BME280;47485;51.378;-1.342;2023-04-08T11:56:26;101150.15;;;11.69;19.73
63339;BME280;47485;51.378;-1.342;2023-04-08T11:58:53;101148.76;;;9.71;20.86
63339;BME280;47485;51.378;-1.342;2023-04-08T12:01:20;101146.76;;;10.92;21.37
63339;BME280;47485;51.378;-1.342;2023-04-08T12:03:55;101145.36;;;10.63;20.36
63339;BME280;47485;51.378;-1.342;2023-04-08T12:06:23;101143.73;;;11.21;19.54
63339;BME280;47485;51.378;-1.342;2023-04-08T12:08:49;101140.41;;;7.89;21.74
63339;BME280;47485;51.378;-1.342;2023-04-08T12:11:16;101140.39;;;10.44;19.79
63339;BME280;47485;51.378;-1.342;2023-04-08T12:13:43;101140.44;;;8.30;21.25
63339;BME280;47485;51.378;-1.342;2023-04-08T12:16:09;101139.22;;;9.94;19.41
63339;BME280;47485;51.378;-1.342;2023-04-08T12:18:36;101144.47;;;6.26;21.76
63339;BME280;47485;51.378;-1.342;2023-04-08T12:21:03;101143.28;;;9.08;20.04
63339;BME280;47485;51.378;-1.342;2023-04-08T12:23:30;101139.84;;;11.65;18.82
63339;BME280;47485;51.378;-1.342;2023-04-08T12:25:56;101143.10;;;9.44;20.39
63339;BME280;47485;51.378;-1.342;2023-04-08T12:28:23;101136.66;;;7.74;21.54
63339;BME280;47485;51.378;-1.342;2023-04-08T12:30:50;101134.42;;;9.39;19.14
63339;BME280;47485;51.378;-1.342;2023-04-08T12:33:17;101133.64;;;11.37;18.15
63339;BME280;47485;51.378;-1.342;2023-04-08T12:35:44;101134.97;;;8.07;19.30
63339;BME280;47485;51.378;-1.342;2023-04-08T12:38:11;101138.16;;;10.12;19.24
63339;BME280;47485;51.378;-1.342;2023-04-08T12:40:38;101137.58;;;10.60;19.69
63339;BME280;47485;51.378;-1.342;2023-04-08T12:43:05;101135.96;;;12.65;19.33
63339;BME280;47485;51.378;-1.342;2023-04-08T12:45:32;101130.81;;;11.53;18.22
63339;BME280;47485;51.378;-1.342;2023-04-08T12:47:59;101132.23;;;10.89;18.54
63339;BME280;47485;51.378;-1.342;2023-04-08T12:50:25;101132.98;;;9.07;19.48
63339;BME280;47485;51.378;-1.342;2023-04-08T12:52:52;101131.44;;;10.36;19.08
63339;BME280;47485;51.378;-1.342;2023-04-08T12:55:19;101134.64;;;9.47;19.31